createdAt,value
2018-03-30T10:35:03.100Z,21.90
2018-03-30T10:37:30.683Z,25.07
2018-03-30T10:39:57.566Z,20.90
2018-03-30T10:42:24.653Z,22.00
2018-03-30T10:44:52.280Z,20.97
2018-03-30T10:47:19.165Z,23.43
2018-03-30T10:49:46.878Z,22.67
2018-03-30T10:52:13.705Z,22.20
2018-03-30T10:54:40.552Z,21.20
2018-03-30T10:57:07.906Z,22.63
2018-03-30T10:59:34.746Z,21.43
2018-03-30T11:02:01.612Z,22.30
2018-03-30T11:04:28.607Z,21.93
2018-03-30T11:06:56.229Z,19.47
2018-03-30T11:09:23.070Z,19.67
2018-03-30T11:11:50.072Z,19.87
2018-03-30T11:14:17.744Z,20.60
2018-03-30T11:16:44.575Z,20.30
2018-03-30T11:19:12.225Z,20.43
2018-03-30T11:21:39.162Z,20.73
2018-03-30T11:24:05.994Z,20.20
2018-03-30T11:26:32.923Z,21.13
2018-03-30T11:28:59.754Z,19.83
2018-03-30T11:31:26.594Z,20.20
2018-03-30T11:33:53.573Z,19.40
2018-03-30T11:36:20.460Z,19.83
2018-03-30T11:38:48.348Z,19.50
2018-03-30T11:41:15.293Z,19.53
2018-03-30T11:43:42.120Z,19.07
2018-03-30T11:46:09.689Z,19.43
2018-03-30T11:48:36.573Z,18.10
2018-03-30T11:51:03.449Z,20.10
2018-03-30T11:53:30.328Z,19.87
2018-03-30T11:55:57.451Z,19.00
2018-03-30T11:58:25.134Z,18.97
2018-03-30T12:00:51.999Z,19.60
2018-03-30T12:03:18.987Z,19.57
2018-03-30T12:05:45.896Z,19.27
2018-03-30T12:08:12.778Z,17.20
2018-03-30T12:10:39.763Z,18.77
2018-03-30T12:13:07.330Z,18.40
2018-03-30T12:15:34.224Z,18.93
2018-03-30T12:18:01.197Z,19.50
2018-03-30T12:20:28.047Z,19.37
2018-03-30T12:22:55.737Z,18.47
2018-03-30T12:25:22.727Z,18.10
2018-03-30T12:27:49.635Z,18.83
2018-03-30T12:30:16.469Z,18.80
2018-03-30T12:32:43.359Z,17.93
2018-03-30T12:35:10.212Z,16.33
2018-03-30T12:37:37.100Z,18.70
2018-03-30T12:40:04.134Z,17.67
2018-03-30T12:42:31.716Z,17.07
2018-03-30T12:44:58.571Z,18.03
2018-03-30T12:47:25.588Z,17.20
2018-03-30T12:49:53.203Z,18.30
2018-03-30T12:52:20.077Z,16.43
2018-03-30T12:54:47.140Z,17.00
2018-03-30T12:57:14.734Z,16.03
2018-03-30T12:59:41.568Z,17.23
2018-03-30T13:02:08.540Z,16.63
2018-03-30T13:04:35.461Z,16.37
2018-03-30T13:07:02.378Z,16.63
2018-03-30T13:09:29.256Z,15.50
2018-03-30T13:11:56.137Z,15.30
2018-03-30T13:14:22.999Z,14.10
2018-03-30T13:16:49.898Z,15.17
2018-03-30T13:19:16.732Z,15.00
2018-03-30T13:21:43.571Z,14.00
2018-03-30T13:24:10.639Z,13.97
2018-03-30T13:26:37.566Z,14.63
2018-03-30T13:29:05.176Z,14.53
2018-03-30T13:31:32.146Z,15.10
2018-03-30T13:33:58.992Z,14.73
2018-03-30T13:36:25.865Z,12.93
2018-03-30T13:38:52.739Z,14.23
2018-03-30T13:41:19.590Z,13.77
2018-03-30T13:43:46.427Z,12.90
2018-03-30T13:46:13.354Z,13.97
2018-03-30T13:48:40.224Z,14.57
2018-03-30T13:54:16.527Z,12.60
2018-03-30T13:56:49.689Z,14.03
2018-03-30T13:59:19.394Z,13.77
2018-03-30T14:05:00.523Z,12.83
2018-03-30T14:07:33.586Z,12.90
2018-03-30T14:10:04.350Z,13.57
2018-03-30T14:12:34.845Z,12.57
2018-03-30T14:15:01.845Z,13.30
2018-03-30T14:17:33.322Z,13.40
2018-03-30T14:20:02.248Z,14.13
2018-03-30T14:23:03.721Z,13.67
2018-03-30T14:28:41.678Z,13.77
2018-03-30T14:31:12.278Z,11.57
2018-03-30T14:33:42.153Z,13.00
2018-03-30T14:36:21.491Z,14.07
2018-03-30T14:41:52.275Z,12.63
2018-03-30T14:44:35.168Z,12.87
2018-03-30T14:47:04.123Z,12.80
2018-03-30T14:55:56.951Z,13.37
2018-03-30T15:04:19.577Z,13.20
2018-03-30T15:09:55.854Z,13.27
2018-03-30T15:12:30.632Z,14.50
2018-03-30T15:14:59.223Z,14.17
2018-03-30T15:17:45.909Z,11.80
2018-03-30T15:20:18.636Z,11.23
2018-03-30T15:22:54.491Z,12.17
2018-03-30T15:28:34.845Z,11.30
2018-03-30T15:31:07.848Z,11.80
2018-03-30T15:36:48.957Z,12.23
2018-03-30T15:39:16.693Z,11.97
2018-03-30T15:41:46.415Z,12.23
2018-03-30T15:44:13.623Z,11.53
2018-03-30T15:46:53.489Z,11.87
2018-03-30T15:49:20.806Z,11.33
2018-03-30T15:51:48.509Z,12.23
2018-03-30T15:54:15.004Z,12.57
2018-03-30T15:56:43.722Z,11.50
2018-03-30T15:59:10.692Z,13.17
2018-03-30T16:01:37.526Z,11.33
2018-03-30T16:04:04.469Z,12.70
2018-03-30T16:06:31.301Z,12.97
2018-03-30T16:08:58.268Z,11.97
2018-03-30T16:11:33.137Z,12.80
2018-03-30T16:13:59.986Z,13.03
2018-03-30T16:16:26.882Z,12.53
2018-03-30T16:18:56.167Z,13.30
2018-03-30T16:21:22.703Z,13.00
2018-03-30T16:23:49.234Z,12.80
2018-03-30T16:26:15.919Z,12.87
2018-03-30T16:28:42.406Z,11.97
2018-03-30T16:31:08.900Z,13.03
2018-03-30T16:33:35.543Z,13.60
2018-03-30T16:36:02.039Z,14.30
2018-03-30T16:38:28.522Z,13.13
2018-03-30T16:40:55.119Z,13.20
2018-03-30T16:43:21.598Z,14.97
2018-03-30T16:45:48.084Z,13.80
2018-03-30T16:48:14.767Z,14.07
2018-03-30T16:50:41.313Z,14.13
2018-03-30T16:53:08.590Z,13.90
2018-03-30T16:55:35.199Z,14.33
2018-03-30T16:58:01.786Z,14.03
2018-03-30T17:00:28.278Z,13.27
2018-03-30T17:02:54.952Z,13.00
2018-03-30T17:05:21.439Z,14.33
2018-03-30T17:07:48.038Z,13.27
2018-03-30T17:10:14.555Z,14.57
2018-03-30T17:12:41.037Z,14.17
2018-03-30T17:15:07.531Z,12.87
2018-03-30T17:17:34.088Z,14.13
2018-03-30T17:20:00.565Z,14.40
2018-03-30T17:22:27.119Z,14.33
2018-03-30T17:24:54.433Z,17.73
2018-03-30T17:27:21.011Z,14.43
2018-03-30T17:29:47.492Z,13.60
2018-03-30T17:32:14.952Z,13.90
2018-03-30T17:34:41.481Z,15.03
2018-03-30T17:37:07.961Z,13.63
2018-03-30T17:39:34.486Z,18.73
2018-03-30T17:42:00.976Z,19.03
2018-03-30T17:44:27.500Z,17.20
2018-03-30T17:46:55.096Z,13.57
2018-03-30T17:49:21.603Z,13.90
2018-03-30T17:51:48.855Z,16.63
2018-03-30T17:54:15.387Z,13.57
2018-03-30T17:56:42.609Z,13.57
2018-03-30T17:59:09.127Z,14.30
2018-03-30T18:01:35.655Z,14.70
2018-03-30T18:04:02.174Z,14.83
2018-03-30T18:06:29.408Z,16.83
2018-03-30T18:08:55.986Z,14.00
2018-03-30T18:11:22.523Z,16.20
2018-03-30T18:13:49.068Z,13.73
2018-03-30T18:16:15.697Z,16.77
2018-03-30T18:18:42.191Z,15.27
2018-03-30T18:21:09.461Z,14.57
2018-03-30T18:23:36.190Z,14.40
2018-03-30T18:26:03.414Z,13.67
2018-03-30T18:28:30.011Z,14.57
2018-03-30T18:30:57.933Z,14.47
2018-03-30T18:33:25.167Z,14.60
2018-03-30T18:35:52.036Z,15.50
2018-03-30T18:38:18.908Z,13.77
2018-03-30T18:40:45.434Z,13.70
2018-03-30T18:43:11.914Z,13.10
2018-03-30T18:45:38.464Z,11.13
2018-03-30T18:48:05.647Z,11.63
2018-03-30T18:50:32.797Z,12.23
2018-03-30T18:53:00.058Z,13.07
2018-03-30T18:55:27.555Z,11.37
2018-03-30T18:57:54.051Z,11.70
2018-03-30T19:00:21.465Z,12.20
2018-03-30T19:02:47.954Z,12.23
2018-03-30T19:05:14.479Z,10.80
2018-03-30T19:07:41.834Z,11.60
2018-03-30T19:10:09.113Z,11.10
2018-03-30T19:12:35.601Z,10.60
2018-03-30T19:15:02.233Z,12.20
2018-03-30T19:17:28.798Z,11.93
2018-03-30T19:19:56.079Z,17.30
2018-03-30T19:22:22.795Z,10.13
2018-03-30T19:24:50.023Z,11.73
2018-03-30T19:27:16.593Z,11.30
2018-03-30T19:29:43.992Z,11.00
2018-03-30T19:32:10.486Z,10.70
2018-03-30T19:34:37.250Z,10.83
2018-03-30T19:37:04.033Z,10.53
2018-03-30T19:39:30.578Z,11.13
2018-03-30T19:41:57.070Z,11.10
2018-03-30T19:44:23.751Z,10.87
2018-03-30T19:46:51.200Z,11.57
2018-03-30T19:49:17.755Z,11.57
2018-03-30T19:51:44.383Z,10.80
2018-03-30T19:54:10.900Z,11.53
2018-03-30T19:56:37.373Z,12.50
2018-03-30T19:59:04.003Z,10.43
2018-03-30T20:01:30.500Z,11.00
2018-03-30T20:03:56.996Z,10.30
2018-03-30T20:06:24.456Z,10.37
2018-03-30T20:08:52.382Z,10.43
2018-03-30T20:11:18.862Z,10.53
2018-03-30T20:13:46.244Z,10.70
2018-03-30T20:16:12.740Z,9.37
2018-03-30T20:18:39.218Z,10.90
2018-03-30T20:21:05.832Z,10.90
2018-03-30T20:23:33.173Z,9.97
2018-03-30T20:25:59.668Z,11.87
2018-03-30T20:28:26.207Z,11.23
2018-03-30T20:30:52.690Z,9.83
2018-03-30T20:33:19.920Z,10.27
2018-03-30T20:35:46.625Z,10.37
2018-03-30T20:38:13.109Z,10.10
2018-03-30T20:40:39.598Z,9.97
2018-03-30T20:43:06.299Z,10.17
2018-03-30T20:45:33.543Z,10.07
2018-03-30T20:48:00.822Z,9.87
2018-03-30T20:50:27.482Z,8.83
2018-03-30T20:52:54.056Z,8.67
2018-03-30T20:55:20.583Z,9.80
2018-03-30T20:57:47.530Z,9.10
2018-03-30T21:00:14.066Z,9.13
2018-03-30T21:02:41.425Z,9.50
2018-03-30T21:05:08.106Z,8.80
2018-03-30T21:07:35.565Z,9.17
2018-03-30T21:10:02.174Z,9.23
2018-03-30T21:12:28.831Z,9.63
2018-03-30T21:14:56.067Z,8.47
2018-03-30T21:17:22.640Z,9.30
2018-03-30T21:19:49.312Z,8.33
2018-03-30T21:22:15.841Z,8.60
2018-03-30T21:24:42.855Z,7.97
2018-03-30T21:27:09.552Z,7.90
2018-03-30T21:29:36.055Z,7.80
2018-03-30T21:32:02.592Z,7.70
2018-03-30T21:34:29.161Z,7.78
2018-03-30T21:36:56.447Z,7.70
2018-03-30T21:39:22.931Z,8.85
2018-03-30T21:41:49.589Z,7.00
2018-03-30T21:44:16.116Z,7.93
2018-03-30T21:46:42.658Z,7.53
2018-03-30T21:49:09.325Z,7.00
2018-03-30T21:51:35.834Z,7.18
2018-03-30T21:54:02.317Z,6.78
2018-03-30T21:56:28.838Z,6.53
2018-03-30T21:58:55.463Z,7.25
2018-03-30T22:01:22.025Z,7.15
2018-03-30T22:03:48.743Z,7.70
2018-03-30T22:06:15.240Z,6.80
2018-03-30T22:08:41.742Z,9.02
2018-03-30T22:11:09.309Z,7.28
2018-03-30T22:13:36.577Z,7.45
2018-03-30T22:16:03.079Z,7.03
2018-03-30T22:18:30.596Z,7.47
2018-03-30T22:20:57.166Z,7.75
2018-03-30T22:23:23.651Z,6.95
2018-03-30T22:25:50.212Z,7.25
2018-03-30T22:28:16.690Z,8.05
2018-03-30T22:30:43.291Z,7.43
2018-03-30T22:33:09.948Z,7.62
2018-03-30T22:35:36.471Z,6.75
2018-03-30T22:38:03.050Z,7.37
2018-03-30T22:40:29.892Z,6.57
2018-03-30T22:42:57.116Z,6.97
2018-03-30T22:45:23.641Z,7.50
2018-03-30T22:47:50.230Z,7.75
2018-03-30T22:50:17.519Z,6.60
2018-03-30T22:52:43.997Z,6.45
2018-03-30T22:55:10.622Z,7.50
2018-03-30T22:57:37.207Z,6.62
2018-03-30T23:00:03.703Z,6.90
2018-03-30T23:02:30.335Z,6.35
2018-03-30T23:04:56.827Z,6.40
2018-03-30T23:07:23.311Z,7.62
2018-03-30T23:09:49.893Z,7.00
2018-03-30T23:12:17.239Z,7.47
2018-03-30T23:14:43.993Z,6.45
2018-03-30T23:17:11.005Z,8.40
2018-03-30T23:19:37.668Z,7.70
2018-03-30T23:22:04.222Z,6.50
2018-03-30T23:24:30.845Z,7.85
2018-03-30T23:26:58.066Z,6.85
2018-03-30T23:29:24.568Z,7.68
2018-03-30T23:31:51.115Z,6.85
2018-03-30T23:34:17.610Z,7.22
2018-03-30T23:36:44.869Z,7.65
2018-03-30T23:39:11.763Z,7.45
2018-03-30T23:41:38.294Z,6.50
2018-03-30T23:44:04.788Z,6.90
2018-03-30T23:46:32.187Z,6.82
2018-03-30T23:48:58.676Z,7.22
2018-03-30T23:51:25.909Z,7.65
2018-03-30T23:53:52.538Z,6.65
2018-03-30T23:56:19.024Z,7.90
2018-03-30T23:58:45.640Z,7.62
